sensor_id;sensor_type;location;lat;lon;timestamp;P1;durP1;ratioP1;P2;durP2;ratioP2
22634;SDS011;11484;50.858;4.384;2022-09-24T00:00:55;16.60;;;12.43;;
22634;SDS011;11484;50.858;4.384;2022-09-24T00:03:22;16.35;;;11.35;;
22634;SDS011;11484;50.858;4.384;2022-09-24T00:05:49;16.52;;;11.35;;
22634;SDS011;11484;50.858;4.384;2022-09-24T00:08:17;18.08;;;11.57;;
22634;SDS011;11484;50.858;4.384;2022-09-24T00:10:44;14.32;;;11.00;;
22634;SDS011;11484;50.858;4.384;2022-09-24T00:13:13;13.32;;;10.23;;
22634;SDS011;11484;50.858;4.384;2022-09-24T00:15:41;15.27;;;11.07;;
22634;SDS011;11484;50.858;4.384;2022-09-24T00:18:11;15.60;;;11.40;;
22634;SDS011;11484;50.858;4.384;2022-09-24T00:20:38;14.32;;;10.50;;
22634;SDS011;11484;50.858;4.384;2022-09-24T00:23:04;14.18;;;9.75;;
22634;SDS011;11484;50.858;4.384;2022-09-24T00:25:31;12.52;;;9.40;;
22634;SDS011;11484;50.858;4.384;2022-09-24T00:28:15;14.27;;;9.90;;
22634;SDS011;11484;50.858;4.384;2022-09-24T00:30:42;14.43;;;10.20;;
22634;SDS011;11484;50.858;4.384;2022-09-24T00:33:08;14.48;;;10.35;;
22634;SDS011;11484;50.858;4.384;2022-09-24T00:35:35;12.77;;;9.60;;
22634;SDS011;11484;50.858;4.384;2022-09-24T00:38:02;12.85;;;9.48;;
22634;SDS011;11484;50.858;4.384;2022-09-24T00:40:31;13.45;;;9.93;;
22634;SDS011;11484;50.858;4.384;2022-09-24T00:42:58;13.80;;;9.43;;
22634;SDS011;11484;50.858;4.384;2022-09-24T00:45:24;13.75;;;9.65;;
22634;SDS011;11484;50.858;4.384;2022-09-24T00:47:52;13.55;;;9.65;;
22634;SDS011;11484;50.858;4.384;2022-09-24T00:50:28;14.63;;;9.57;;
22634;SDS011;11484;50.858;4.384;2022-09-24T00:53:04;12.20;;;9.38;;
22634;SDS011;11484;50.858;4.384;2022-09-24T00:55:36;13.13;;;9.02;;
22634;SDS011;11484;50.858;4.384;2022-09-24T00:58:04;11.38;;;8.95;;
22634;SDS011;11484;50.858;4.384;2022-09-24T01:00:32;13.38;;;9.40;;
22634;SDS011;11484;50.858;4.384;2022-09-24T01:03:01;15.05;;;9.40;;
22634;SDS011;11484;50.858;4.384;2022-09-24T01:07:56;15.45;;;9.90;;
22634;SDS011;11484;50.858;4.384;2022-09-24T01:10:30;15.43;;;10.45;;
22634;SDS011;11484;50.858;4.384;2022-09-24T01:13:25;13.65;;;10.38;;
22634;SDS011;11484;50.858;4.384;2022-09-24T01:16:06;15.48;;;12.02;;
22634;SDS011;11484;50.858;4.384;2022-09-24T01:18:40;14.75;;;11.63;;
22634;SDS011;11484;50.858;4.384;2022-09-24T01:21:34;17.33;;;12.65;;
22634;SDS011;11484;50.858;4.384;2022-09-24T01:29:28;17.80;;;12.93;;
22634;SDS011;11484;50.858;4.384;2022-09-24T01:32:07;18.05;;;12.55;;
22634;SDS011;11484;50.858;4.384;2022-09-24T01:34:43;20.02;;;13.20;;
22634;SDS011;11484;50.858;4.384;2022-09-24T01:39:40;18.23;;;13.07;;
22634;SDS011;11484;50.858;4.384;2022-09-24T01:42:09;19.35;;;13.38;;
22634;SDS011;11484;50.858;4.384;2022-09-24T01:44:36;18.52;;;13.05;;
22634;SDS011;11484;50.858;4.384;2022-09-24T01:47:03;20.60;;;13.85;;
22634;SDS011;11484;50.858;4.384;2022-09-24T01:49:31;19.25;;;13.07;;
22634;SDS011;11484;50.858;4.384;2022-09-24T01:51:57;17.90;;;13.80;;
22634;SDS011;11484;50.858;4.384;2022-09-24T01:57:03;19.55;;;13.55;;
22634;SDS011;11484;50.858;4.384;2022-09-24T01:59:37;20.92;;;14.60;;
22634;SDS011;11484;50.858;4.384;2022-09-24T02:02:08;19.85;;;14.32;;
22634;SDS011;11484;50.858;4.384;2022-09-24T02:04:41;19.38;;;13.65;;
22634;SDS011;11484;50.858;4.384;2022-09-24T02:07:34;17.98;;;13.23;;
22634;SDS011;11484;50.858;4.384;2022-09-24T02:10:04;19.85;;;13.52;;
22634;SDS011;11484;50.858;4.384;2022-09-24T02:12:34;20.15;;;14.07;;
22634;SDS011;11484;50.858;4.384;2022-09-24T02:15:27;16.90;;;12.88;;
22634;SDS011;11484;50.858;4.384;2022-09-24T02:18:02;17.90;;;12.52;;
22634;SDS011;11484;50.858;4.384;2022-09-24T02:20:31;19.23;;;13.13;;
22634;SDS011;11484;50.858;4.384;2022-09-24T02:22:59;17.50;;;13.00;;
22634;SDS011;11484;50.858;4.384;2022-09-24T02:25:30;18.63;;;13.57;;
22634;SDS011;11484;50.858;4.384;2022-09-24T02:28:02;18.63;;;13.30;;
22634;SDS011;11484;50.858;4.384;2022-09-24T02:30:27;18.08;;;12.73;;
22634;SDS011;11484;50.858;4.384;2022-09-24T02:33:01;18.00;;;13.07;;
22634;SDS011;11484;50.858;4.384;2022-09-24T02:35:48;19.10;;;12.70;;
22634;SDS011;11484;50.858;4.384;2022-09-24T02:38:17;18.00;;;12.68;;
22634;SDS011;11484;50.858;4.384;2022-09-24T02:40:43;18.13;;;13.10;;
22634;SDS011;11484;50.858;4.384;2022-09-24T02:43:09;21.08;;;13.93;;
22634;SDS011;11484;50.858;4.384;2022-09-24T02:45:35;18.30;;;13.35;;
22634;SDS011;11484;50.858;4.384;2022-09-24T02:48:00;22.92;;;14.88;;
22634;SDS011;11484;50.858;4.384;2022-09-24T02:50:26;19.48;;;13.18;;
22634;SDS011;11484;50.858;4.384;2022-09-24T02:52:52;19.58;;;14.20;;
22634;SDS011;11484;50.858;4.384;2022-09-24T02:55:18;21.70;;;13.85;;
22634;SDS011;11484;50.858;4.384;2022-09-24T02:57:43;21.60;;;14.10;;
22634;SDS011;11484;50.858;4.384;2022-09-24T03:00:09;21.35;;;13.73;;
22634;SDS011;11484;50.858;4.384;2022-09-24T03:02:36;21.80;;;13.98;;
22634;SDS011;11484;50.858;4.384;2022-09-24T03:05:02;21.25;;;14.55;;
22634;SDS011;11484;50.858;4.384;2022-09-24T03:07:28;21.90;;;14.95;;
22634;SDS011;11484;50.858;4.384;2022-09-24T03:09:54;21.67;;;14.02;;
22634;SDS011;11484;50.858;4.384;2022-09-24T03:12:19;19.80;;;13.90;;
22634;SDS011;11484;50.858;4.384;2022-09-24T03:14:45;20.17;;;13.85;;
22634;SDS011;11484;50.858;4.384;2022-09-24T03:17:11;23.48;;;14.77;;
22634;SDS011;11484;50.858;4.384;2022-09-24T03:19:36;19.58;;;13.95;;
22634;SDS011;11484;50.858;4.384;2022-09-24T03:22:02;20.75;;;14.00;;
22634;SDS011;11484;50.858;4.384;2022-09-24T03:24:28;21.90;;;14.50;;
22634;SDS011;11484;50.858;4.384;2022-09-24T03:26:53;20.50;;;14.85;;
22634;SDS011;11484;50.858;4.384;2022-09-24T03:29:19;20.00;;;14.60;;
22634;SDS011;11484;50.858;4.384;2022-09-24T03:32:05;19.02;;;14.07;;
22634;SDS011;11484;50.858;4.384;2022-09-24T03:34:31;21.85;;;14.95;;
22634;SDS011;11484;50.858;4.384;2022-09-24T03:36:56;21.13;;;14.45;;
22634;SDS011;11484;50.858;4.384;2022-09-24T03:39:22;21.92;;;15.00;;
22634;SDS011;11484;50.858;4.384;2022-09-24T03:41:47;21.98;;;15.15;;
22634;SDS011;11484;50.858;4.384;2022-09-24T03:44:13;22.02;;;14.05;;
22634;SDS011;11484;50.858;4.384;2022-09-24T03:46:39;17.98;;;13.48;;
22634;SDS011;11484;50.858;4.384;2022-09-24T03:49:04;20.23;;;14.75;;
22634;SDS011;11484;50.858;4.384;2022-09-24T03:51:30;20.85;;;14.55;;
22634;SDS011;11484;50.858;4.384;2022-09-24T03:53:55;22.60;;;14.90;;
22634;SDS011;11484;50.858;4.384;2022-09-24T03:56:21;22.77;;;15.77;;
22634;SDS011;11484;50.858;4.384;2022-09-24T03:58:47;21.15;;;14.57;;
22634;SDS011;11484;50.858;4.384;2022-09-24T04:01:13;23.50;;;15.57;;
22634;SDS011;11484;50.858;4.384;2022-09-24T04:03:45;21.80;;;14.77;;
22634;SDS011;11484;50.858;4.384;2022-09-24T04:06:11;22.00;;;14.65;;
22634;SDS011;11484;50.858;4.384;2022-09-24T04:08:37;23.67;;;15.90;;
22634;SDS011;11484;50.858;4.384;2022-09-24T04:11:03;20.63;;;15.15;;
22634;SDS011;11484;50.858;4.384;2022-09-24T04:13:28;26.08;;;16.23;;
22634;SDS011;11484;50.858;4.384;2022-09-24T04:15:54;23.38;;;16.13;;
22634;SDS011;11484;50.858;4.384;2022-09-24T04:18:20;23.23;;;16.35;;
22634;SDS011;11484;50.858;4.384;2022-09-24T04:20:46;21.08;;;15.43;;
22634;SDS011;11484;50.858;4.384;2022-09-24T04:23:12;26.38;;;16.48;;
22634;SDS011;11484;50.858;4.384;2022-09-24T04:25:38;25.63;;;17.48;;
22634;SDS011;11484;50.858;4.384;2022-09-24T04:28:07;25.98;;;17.30;;
22634;SDS011;11484;50.858;4.384;2022-09-24T04:30:34;25.92;;;16.52;;
22634;SDS011;11484;50.858;4.384;2022-09-24T04:33:00;24.80;;;16.50;;
22634;SDS011;11484;50.858;4.384;2022-09-24T04:35:28;23.95;;;15.93;;
22634;SDS011;11484;50.858;4.384;2022-09-24T04:37:55;24.13;;;16.20;;
22634;SDS011;11484;50.858;4.384;2022-09-24T04:40:23;24.10;;;15.85;;
22634;SDS011;11484;50.858;4.384;2022-09-24T04:42:48;24.30;;;16.55;;
22634;SDS011;11484;50.858;4.384;2022-09-24T04:45:14;25.80;;;16.15;;
22634;SDS011;11484;50.858;4.384;2022-09-24T04:47:44;23.40;;;16.52;;
22634;SDS011;11484;50.858;4.384;2022-09-24T04:50:16;23.90;;;16.50;;
22634;SDS011;11484;50.858;4.384;2022-09-24T04:52:42;24.33;;;15.32;;
22634;SDS011;11484;50.858;4.384;2022-09-24T04:55:08;24.48;;;15.27;;
22634;SDS011;11484;50.858;4.384;2022-09-24T04:57:34;23.30;;;15.93;;
22634;SDS011;11484;50.858;4.384;2022-09-24T05:00:04;24.42;;;17.02;;
22634;SDS011;11484;50.858;4.384;2022-09-24T05:02:32;21.92;;;15.82;;
22634;SDS011;11484;50.858;4.384;2022-09-24T05:04:58;23.25;;;15.82;;
22634;SDS011;11484;50.858;4.384;2022-09-24T05:07:23;21.77;;;16.33;;
22634;SDS011;11484;50.858;4.384;2022-09-24T05:09:49;25.50;;;16.13;;
22634;SDS011;11484;50.858;4.384;2022-09-24T05:12:15;23.95;;;16.45;;
22634;SDS011;11484;50.858;4.384;2022-09-24T05:14:40;22.70;;;15.63;;
22634;SDS011;11484;50.858;4.384;2022-09-24T05:17:06;22.02;;;15.80;;
22634;SDS011;11484;50.858;4.384;2022-09-24T05:19:32;21.17;;;15.43;;
22634;SDS011;11484;50.858;4.384;2022-09-24T05:21:58;23.92;;;16.02;;
22634;SDS011;11484;50.858;4.384;2022-09-24T05:24:23;21.23;;;14.93;;
22634;SDS011;11484;50.858;4.384;2022-09-24T05:26:49;23.52;;;16.13;;
22634;SDS011;11484;50.858;4.384;2022-09-24T05:29:33;25.38;;;16.85;;
22634;SDS011;11484;50.858;4.384;2022-09-24T05:31:58;22.30;;;15.13;;
22634;SDS011;11484;50.858;4.384;2022-09-24T05:34:29;22.85;;;15.60;;
22634;SDS011;11484;50.858;4.384;2022-09-24T05:36:55;23.40;;;15.90;;
22634;SDS011;11484;50.858;4.384;2022-09-24T05:39:21;22.65;;;15.80;;
22634;SDS011;11484;50.858;4.384;2022-09-24T05:41:47;23.73;;;15.43;;
22634;SDS011;11484;50.858;4.384;2022-09-24T05:44:12;22.98;;;16.15;;
22634;SDS011;11484;50.858;4.384;2022-09-24T05:46:38;22.55;;;15.95;;
22634;SDS011;11484;50.858;4.384;2022-09-24T05:49:04;23.25;;;15.43;;
22634;SDS011;11484;50.858;4.384;2022-09-24T05:51:29;25.17;;;16.38;;
22634;SDS011;11484;50.858;4.384;2022-09-24T05:53:55;24.58;;;17.30;;
22634;SDS011;11484;50.858;4.384;2022-09-24T05:56:21;22.98;;;16.17;;
22634;SDS011;11484;50.858;4.384;2022-09-24T05:58:49;23.35;;;16.25;;
22634;SDS011;11484;50.858;4.384;2022-09-24T06:01:15;24.40;;;16.45;;
22634;SDS011;11484;50.858;4.384;2022-09-24T06:03:41;25.83;;;16.10;;
22634;SDS011;11484;50.858;4.384;2022-09-24T06:06:07;25.10;;;15.95;;
22634;SDS011;11484;50.858;4.384;2022-09-24T06:08:32;23.67;;;15.82;;
22634;SDS011;11484;50.858;4.384;2022-09-24T06:10:59;25.45;;;17.10;;
22634;SDS011;11484;50.858;4.384;2022-09-24T06:13:26;23.80;;;16.75;;
22634;SDS011;11484;50.858;4.384;2022-09-24T06:15:53;23.75;;;16.60;;
22634;SDS011;11484;50.858;4.384;2022-09-24T06:18:24;24.60;;;16.13;;
22634;SDS011;11484;50.858;4.384;2022-09-24T06:20:50;27.98;;;17.17;;
22634;SDS011;11484;50.858;4.384;2022-09-24T06:23:16;26.55;;;16.88;;
22634;SDS011;11484;50.858;4.384;2022-09-24T06:25:42;25.42;;;16.08;;
22634;SDS011;11484;50.858;4.384;2022-09-24T06:28:08;22.95;;;15.50;;
22634;SDS011;11484;50.858;4.384;2022-09-24T06:30:35;24.63;;;15.82;;
22634;SDS011;11484;50.858;4.384;2022-09-24T06:33:03;26.10;;;16.63;;
22634;SDS011;11484;50.858;4.384;2022-09-24T06:35:34;26.15;;;16.65;;
22634;SDS011;11484;50.858;4.384;2022-09-24T06:38:05;25.98;;;16.02;;
22634;SDS011;11484;50.858;4.384;2022-09-24T06:40:32;27.88;;;16.83;;
22634;SDS011;11484;50.858;4.384;2022-09-24T06:42:58;26.38;;;16.85;;
22634;SDS011;11484;50.858;4.384;2022-09-24T06:45:24;24.00;;;16.67;;
22634;SDS011;11484;50.858;4.384;2022-09-24T06:47:54;27.45;;;17.05;;
22634;SDS011;11484;50.858;4.384;2022-09-24T06:50:26;25.35;;;16.38;;
22634;SDS011;11484;50.858;4.384;2022-09-24T06:52:54;24.92;;;16.63;;
22634;SDS011;11484;50.858;4.384;2022-09-24T06:55:20;26.48;;;16.30;;
22634;SDS011;11484;50.858;4.384;2022-09-24T06:57:46;24.20;;;16.40;;
22634;SDS011;11484;50.858;4.384;2022-09-24T07:00:12;24.60;;;16.10;;
22634;SDS011;11484;50.858;4.384;2022-09-24T07:02:38;26.30;;;16.40;;
22634;SDS011;11484;50.858;4.384;2022-09-24T07:05:05;23.05;;;16.08;;
22634;SDS011;11484;50.858;4.384;2022-09-24T07:07:32;24.80;;;16.90;;
22634;SDS011;11484;50.858;4.384;2022-09-24T07:09:58;25.02;;;16.95;;
22634;SDS011;11484;50.858;4.384;2022-09-24T07:12:32;23.40;;;17.17;;
22634;SDS011;11484;50.858;4.384;2022-09-24T07:14:59;26.17;;;16.30;;
22634;SDS011;11484;50.858;4.384;2022-09-24T07:17:26;28.67;;;16.20;;
22634;SDS011;11484;50.858;4.384;2022-09-24T07:19:53;26.25;;;16.80;;
22634;SDS011;11484;50.858;4.384;2022-09-24T07:22:19;30.73;;;18.58;;
22634;SDS011;11484;50.858;4.384;2022-09-24T07:24:46;24.77;;;17.00;;
22634;SDS011;11484;50.858;4.384;2022-09-24T07:27:12;24.45;;;15.77;;
22634;SDS011;11484;50.858;4.384;2022-09-24T07:29:38;24.75;;;16.58;;
22634;SDS011;11484;50.858;4.384;2022-09-24T07:32:05;25.50;;;16.83;;
22634;SDS011;11484;50.858;4.384;2022-09-24T07:34:31;22.40;;;15.55;;
22634;SDS011;11484;50.858;4.384;2022-09-24T07:36:59;21.23;;;15.23;;
22634;SDS011;11484;50.858;4.384;2022-09-24T07:39:25;21.77;;;15.38;;
22634;SDS011;11484;50.858;4.384;2022-09-24T07:41:51;24.83;;;16.83;;
22634;SDS011;11484;50.858;4.384;2022-09-24T07:44:20;21.52;;;15.43;;
22634;SDS011;11484;50.858;4.384;2022-09-24T07:46:47;26.23;;;17.40;;
22634;SDS011;11484;50.858;4.384;2022-09-24T07:49:16;26.42;;;17.42;;
22634;SDS011;11484;50.858;4.384;2022-09-24T07:51:42;22.80;;;15.98;;
22634;SDS011;11484;50.858;4.384;2022-09-24T07:54:08;22.98;;;16.27;;
22634;SDS011;11484;50.858;4.384;2022-09-24T07:56:34;22.38;;;15.90;;
22634;SDS011;11484;50.858;4.384;2022-09-24T07:59:00;21.38;;;15.40;;
22634;SDS011;11484;50.858;4.384;2022-09-24T08:01:26;21.65;;;15.60;;
22634;SDS011;11484;50.858;4.384;2022-09-24T08:03:51;22.88;;;14.80;;
22634;SDS011;11484;50.858;4.384;2022-09-24T08:06:18;22.77;;;15.88;;
22634;SDS011;11484;50.858;4.384;2022-09-24T08:08:50;23.27;;;15.27;;
22634;SDS011;11484;50.858;4.384;2022-09-24T08:11:20;21.92;;;15.30;;
22634;SDS011;11484;50.858;4.384;2022-09-24T08:13:46;21.05;;;14.75;;
22634;SDS011;11484;50.858;4.384;2022-09-24T08:16:12;20.77;;;14.55;;
22634;SDS011;11484;50.858;4.384;2022-09-24T08:18:38;23.50;;;15.25;;
22634;SDS011;11484;50.858;4.384;2022-09-24T08:21:08;20.08;;;14.60;;
22634;SDS011;11484;50.858;4.384;2022-09-24T08:23:35;19.80;;;14.75;;
22634;SDS011;11484;50.858;4.384;2022-09-24T08:26:02;21.48;;;13.77;;
22634;SDS011;11484;50.858;4.384;2022-09-24T08:28:29;23.05;;;15.40;;
22634;SDS011;11484;50.858;4.384;2022-09-24T08:31:02;20.83;;;14.30;;
22634;SDS011;11484;50.858;4.384;2022-09-24T08:33:31;23.42;;;15.70;;
22634;SDS011;11484;50.858;4.384;2022-09-24T08:35:58;19.92;;;15.02;;
22634;SDS011;11484;50.858;4.384;2022-09-24T08:38:24;20.67;;;14.48;;
22634;SDS011;11484;50.858;4.384;2022-09-24T08:45:55;21.88;;;14.75;;
22634;SDS011;11484;50.858;4.384;2022-09-24T08:48:43;25.08;;;17.15;;
22634;SDS011;11484;50.858;4.384;2022-09-24T08:51:16;21.42;;;14.95;;
22634;SDS011;11484;50.858;4.384;2022-09-24T08:56:17;19.48;;;14.35;;
22634;SDS011;11484;50.858;4.384;2022-09-24T08:58:58;18.23;;;13.50;;
22634;SDS011;11484;50.858;4.384;2022-09-24T09:04:25;23.02;;;15.05;;
22634;SDS011;11484;50.858;4.384;2022-09-24T09:09:31;19.92;;;14.05;;
22634;SDS011;11484;50.858;4.384;2022-09-24T09:12:15;22.92;;;14.27;;
22634;SDS011;11484;50.858;4.384;2022-09-24T09:20:22;20.60;;;15.73;;
22634;SDS011;11484;50.858;4.384;2022-09-24T09:22:53;22.00;;;13.63;;
22634;SDS011;11484;50.858;4.384;2022-09-24T09:25:21;21.60;;;14.57;;
22634;SDS011;11484;50.858;4.384;2022-09-24T09:30:21;24.08;;;15.10;;
22634;SDS011;11484;50.858;4.384;2022-09-24T09:35:28;18.38;;;13.30;;
22634;SDS011;11484;50.858;4.384;2022-09-24T09:38:13;23.38;;;14.68;;
22634;SDS011;11484;50.858;4.384;2022-09-24T09:40:58;23.02;;;14.50;;
22634;SDS011;11484;50.858;4.384;2022-09-24T09:43:33;19.70;;;14.05;;
22634;SDS011;11484;50.858;4.384;2022-09-24T09:48:43;19.63;;;13.60;;
22634;SDS011;11484;50.858;4.384;2022-09-24T09:51:18;20.27;;;13.95;;
22634;SDS011;11484;50.858;4.384;2022-09-24T09:56:41;21.33;;;14.00;;
22634;SDS011;11484;50.858;4.384;2022-09-24T10:01:35;20.60;;;14.82;;
22634;SDS011;11484;50.858;4.384;2022-09-24T10:04:05;18.08;;;13.57;;
22634;SDS011;11484;50.858;4.384;2022-09-24T10:09:29;18.13;;;13.73;;
22634;SDS011;11484;50.858;4.384;2022-09-24T10:12:04;20.52;;;13.80;;
22634;SDS011;11484;50.858;4.384;2022-09-24T10:14:39;25.70;;;14.48;;
22634;SDS011;11484;50.858;4.384;2022-09-24T10:17:09;19.38;;;13.52;;
22634;SDS011;11484;50.858;4.384;2022-09-24T10:19:41;20.48;;;14.05;;
22634;SDS011;11484;50.858;4.384;2022-09-24T10:22:20;19.10;;;12.95;;
22634;SDS011;11484;50.858;4.384;2022-09-24T10:24:48;20.60;;;13.40;;
22634;SDS011;11484;50.858;4.384;2022-09-24T10:27:26;18.95;;;13.15;;
22634;SDS011;11484;50.858;4.384;2022-09-24T10:29:53;18.13;;;11.88;;
22634;SDS011;11484;50.858;4.384;2022-09-24T10:32:39;18.20;;;12.25;;
22634;SDS011;11484;50.858;4.384;2022-09-24T10:35:22;18.20;;;12.73;;
22634;SDS011;11484;50.858;4.384;2022-09-24T10:37:54;18.30;;;12.75;;
22634;SDS011;11484;50.858;4.384;2022-09-24T10:40:25;21.63;;;13.45;;
22634;SDS011;11484;50.858;4.384;2022-09-24T10:42:55;19.25;;;14.07;;
22634;SDS011;11484;50.858;4.384;2022-09-24T10:45:24;20.33;;;14.23;;
22634;SDS011;11484;50.858;4.384;2022-09-24T10:48:09;21.80;;;13.90;;
22634;SDS011;11484;50.858;4.384;2022-09-24T10:56:02;20.50;;;13.10;;
22634;SDS011;11484;50.858;4.384;2022-09-24T11:12:34;18.45;;;13.13;;
22634;SDS011;11484;50.858;4.384;2022-09-24T11:15:33;19.38;;;13.18;;
22634;SDS011;11484;50.858;4.384;2022-09-24T11:21:53;18.98;;;12.95;;
22634;SDS011;11484;50.858;4.384;2022-09-24T11:27:02;20.83;;;13.35;;
22634;SDS011;11484;50.858;4.384;2022-09-24T11:30:05;17.20;;;12.13;;
22634;SDS011;11484;50.858;4.384;2022-09-24T11:52:02;18.13;;;13.18;;
22634;SDS011;11484;50.858;4.384;2022-09-24T11:54:39;16.65;;;12.55;;
22634;SDS011;11484;50.858;4.384;2022-09-24T11:59:51;20.55;;;13.77;;
22634;SDS011;11484;50.858;4.384;2022-09-24T12:02:32;19.17;;;13.82;;
22634;SDS011;11484;50.858;4.384;2022-09-24T12:05:14;20.42;;;14.20;;
22634;SDS011;11484;50.858;4.384;2022-09-24T12:13:13;21.77;;;15.05;;
22634;SDS011;11484;50.858;4.384;2022-09-24T12:16:05;24.35;;;18.08;;
22634;SDS011;11484;50.858;4.384;2022-09-24T12:18:53;21.00;;;15.50;;
22634;SDS011;11484;50.858;4.384;2022-09-24T12:21:32;26.70;;;16.13;;
22634;SDS011;11484;50.858;4.384;2022-09-24T12:24:15;24.33;;;15.40;;
22634;SDS011;11484;50.858;4.384;2022-09-24T12:26:45;21.73;;;15.15;;
22634;SDS011;11484;50.858;4.384;2022-09-24T12:41:10;17.13;;;13.98;;
22634;SDS011;11484;50.858;4.384;2022-09-24T12:46:20;18.23;;;14.35;;
22634;SDS011;11484;50.858;4.384;2022-09-24T12:48:49;17.73;;;13.88;;
22634;SDS011;11484;50.858;4.384;2022-09-24T12:51:16;17.88;;;13.48;;
22634;SDS011;11484;50.858;4.384;2022-09-24T12:53:56;19.75;;;13.63;;
22634;SDS011;11484;50.858;4.384;2022-09-24T12:56:27;20.85;;;14.50;;
22634;SDS011;11484;50.858;4.384;2022-09-24T12:58:54;16.05;;;12.20;;
22634;SDS011;11484;50.858;4.384;2022-09-24T13:06:41;17.13;;;12.95;;
22634;SDS011;11484;50.858;4.384;2022-09-24T13:12:04;15.97;;;13.53;;
22634;SDS011;11484;50.858;4.384;2022-09-24T13:15:07;15.38;;;11.27;;
22634;SDS011;11484;50.858;4.384;2022-09-24T13:18:04;14.13;;;11.13;;
22634;SDS011;11484;50.858;4.384;2022-09-24T13:20:33;14.10;;;11.70;;
22634;SDS011;11484;50.858;4.384;2022-09-24T13:25:56;15.43;;;12.07;;
22634;SDS011;11484;50.858;4.384;2022-09-24T13:28:49;18.50;;;12.70;;
22634;SDS011;11484;50.858;4.384;2022-09-24T13:34:10;16.50;;;11.98;;
22634;SDS011;11484;50.858;4.384;2022-09-24T13:36:45;15.73;;;12.45;;
22634;SDS011;11484;50.858;4.384;2022-09-24T13:39:15;17.20;;;12.65;;
22634;SDS011;11484;50.858;4.384;2022-09-24T13:44:46;19.40;;;14.63;;
22634;SDS011;11484;50.858;4.384;2022-09-24T13:50:06;21.40;;;16.15;;
22634;SDS011;11484;50.858;4.384;2022-09-24T13:52:41;24.15;;;17.13;;
22634;SDS011;11484;50.858;4.384;2022-09-24T13:55:19;21.48;;;16.58;;
22634;SDS011;11484;50.858;4.384;2022-09-24T13:57:48;21.80;;;16.63;;
22634;SDS011;11484;50.858;4.384;2022-09-24T14:00:21;23.08;;;16.65;;
22634;SDS011;11484;50.858;4.384;2022-09-24T14:05:22;23.50;;;18.98;;
22634;SDS011;11484;50.858;4.384;2022-09-24T14:07:53;28.50;;;21.60;;
22634;SDS011;11484;50.858;4.384;2022-09-24T14:10:21;25.50;;;20.52;;
22634;SDS011;11484;50.858;4.384;2022-09-24T14:12:57;25.52;;;20.45;;
22634;SDS011;11484;50.858;4.384;2022-09-24T14:15:34;24.38;;;20.02;;
22634;SDS011;11484;50.858;4.384;2022-09-24T14:18:00;25.02;;;19.05;;
22634;SDS011;11484;50.858;4.384;2022-09-24T14:20:27;21.08;;;17.67;;
22634;SDS011;11484;50.858;4.384;2022-09-24T14:22:56;22.15;;;18.02;;
22634;SDS011;11484;50.858;4.384;2022-09-24T14:25:27;18.50;;;16.45;;
22634;SDS011;11484;50.858;4.384;2022-09-24T14:27:54;19.30;;;15.55;;
22634;SDS011;11484;50.858;4.384;2022-09-24T14:30:25;16.30;;;14.40;;
22634;SDS011;11484;50.858;4.384;2022-09-24T14:33:03;33.35;;;27.52;;
22634;SDS011;11484;50.858;4.384;2022-09-24T14:35:32;18.27;;;15.35;;
22634;SDS011;11484;50.858;4.384;2022-09-24T14:40:30;16.58;;;14.82;;
22634;SDS011;11484;50.858;4.384;2022-09-24T14:46:02;18.50;;;13.18;;
22634;SDS011;11484;50.858;4.384;2022-09-24T14:48:36;13.80;;;12.27;;
22634;SDS011;11484;50.858;4.384;2022-09-24T14:51:02;13.88;;;11.57;;
22634;SDS011;11484;50.858;4.384;2022-09-24T14:53:32;14.43;;;12.05;;
22634;SDS011;11484;50.858;4.384;2022-09-24T14:56:25;16.42;;;12.30;;
22634;SDS011;11484;50.858;4.384;2022-09-24T14:58:51;12.15;;;10.85;;
22634;SDS011;11484;50.858;4.384;2022-09-24T15:01:18;14.25;;;11.80;;
22634;SDS011;11484;50.858;4.384;2022-09-24T15:03:49;28.75;;;20.33;;
22634;SDS011;11484;50.858;4.384;2022-09-24T15:06:22;15.23;;;12.40;;
22634;SDS011;11484;50.858;4.384;2022-09-24T15:08:55;17.38;;;13.23;;
22634;SDS011;11484;50.858;4.384;2022-09-24T15:11:28;15.98;;;13.10;;
22634;SDS011;11484;50.858;4.384;2022-09-24T15:14:21;19.05;;;14.05;;
22634;SDS011;11484;50.858;4.384;2022-09-24T15:16:51;16.98;;;14.18;;
22634;SDS011;11484;50.858;4.384;2022-09-24T15:19:19;18.25;;;13.60;;
22634;SDS011;11484;50.858;4.384;2022-09-24T15:21:51;19.95;;;15.15;;
22634;SDS011;11484;50.858;4.384;2022-09-24T15:24:20;26.27;;;20.00;;
22634;SDS011;11484;50.858;4.384;2022-09-24T15:29:29;16.40;;;12.02;;
22634;SDS011;11484;50.858;4.384;2022-09-24T15:31:55;14.40;;;10.48;;
22634;SDS011;11484;50.858;4.384;2022-09-24T15:34:23;13.07;;;10.57;;
22634;SDS011;11484;50.858;4.384;2022-09-24T15:36:53;13.63;;;10.15;;
22634;SDS011;11484;50.858;4.384;2022-09-24T15:39:24;13.73;;;11.27;;
22634;SDS011;11484;50.858;4.384;2022-09-24T15:41:51;16.38;;;12.55;;
22634;SDS011;11484;50.858;4.384;2022-09-24T15:44:20;16.38;;;12.45;;
22634;SDS011;11484;50.858;4.384;2022-09-24T15:46:50;17.77;;;13.63;;
22634;SDS011;11484;50.858;4.384;2022-09-24T15:49:19;25.70;;;21.05;;
22634;SDS011;11484;50.858;4.384;2022-09-24T15:51:47;22.35;;;17.38;;
22634;SDS011;11484;50.858;4.384;2022-09-24T15:54:17;20.30;;;13.95;;
22634;SDS011;11484;50.858;4.384;2022-09-24T15:56:43;19.90;;;15.00;;
22634;SDS011;11484;50.858;4.384;2022-09-24T15:59:13;19.00;;;14.43;;
22634;SDS011;11484;50.858;4.384;2022-09-24T16:01:40;19.80;;;14.43;;
22634;SDS011;11484;50.858;4.384;2022-09-24T16:04:07;19.95;;;15.27;;
22634;SDS011;11484;50.858;4.384;2022-09-24T16:06:35;22.95;;;15.32;;
22634;SDS011;11484;50.858;4.384;2022-09-24T16:09:00;20.17;;;15.15;;
22634;SDS011;11484;50.858;4.384;2022-09-24T16:11:26;19.83;;;16.10;;
22634;SDS011;11484;50.858;4.384;2022-09-24T16:13:52;21.33;;;15.57;;
22634;SDS011;11484;50.858;4.384;2022-09-24T16:16:17;22.45;;;14.90;;
22634;SDS011;11484;50.858;4.384;2022-09-24T16:18:43;19.30;;;15.05;;
22634;SDS011;11484;50.858;4.384;2022-09-24T16:21:09;18.80;;;14.68;;
22634;SDS011;11484;50.858;4.384;2022-09-24T16:23:34;19.27;;;14.50;;
22634;SDS011;11484;50.858;4.384;2022-09-24T16:26:00;20.50;;;14.43;;
22634;SDS011;11484;50.858;4.384;2022-09-24T16:28:27;20.77;;;14.88;;
22634;SDS011;11484;50.858;4.384;2022-09-24T16:30:53;17.77;;;13.80;;
22634;SDS011;11484;50.858;4.384;2022-09-24T16:33:20;20.48;;;14.10;;
22634;SDS011;11484;50.858;4.384;2022-09-24T16:35:46;18.63;;;13.30;;
22634;SDS011;11484;50.858;4.384;2022-09-24T16:38:12;18.52;;;13.80;;
22634;SDS011;11484;50.858;4.384;2022-09-24T16:40:38;21.02;;;14.82;;
22634;SDS011;11484;50.858;4.384;2022-09-24T16:43:04;19.25;;;13.80;;
22634;SDS011;11484;50.858;4.384;2022-09-24T16:45:30;17.08;;;13.45;;
22634;SDS011;11484;50.858;4.384;2022-09-24T16:47:56;18.20;;;13.48;;
22634;SDS011;11484;50.858;4.384;2022-09-24T16:50:22;21.83;;;14.98;;
22634;SDS011;11484;50.858;4.384;2022-09-24T16:52:48;17.77;;;13.40;;
22634;SDS011;11484;50.858;4.384;2022-09-24T16:55:14;20.67;;;13.63;;
22634;SDS011;11484;50.858;4.384;2022-09-24T16:57:40;18.13;;;13.18;;
22634;SDS011;11484;50.858;4.384;2022-09-24T17:00:06;17.20;;;12.48;;
22634;SDS011;11484;50.858;4.384;2022-09-24T17:02:34;18.40;;;13.35;;